Airport details for: GCFV (Spain)

Metar

GCFV 301030Z 05011KT 9999 SCT035 22/15 Q1020

General details

ICAO: GCFV
IATA: FUE
Name (city): Fuerteventura
Major:
Country: Spain
vACC: vACC Spain
Description:

Fuerteventura Airport GCFV

Fuerteventura Airport (IATA: FUE, ICAO: GCFV), also known as El Matorral Airport, is an airport serving the Spanish island of Fuerteventura. It is situated in El Matorral site, 5 km (3.1 mi) southwest[2] of the capital city Puerto del Rosario.

Scenery links:
FS9 scenery:
FSX/P3D scenery:
XP scenery:
Elevation: 86 ft.
Transition altitude: 6000 ft.
MSA: 11100 ft.
Latitude: 28.452778
Longitude: -13.863889
GCFV Charts
GCFV Notams
GCFV Online stations

Runways

Number Course Length Elevation Lat Lon ILS ILS freq ILS FAC GP
01L 7218ft / 2200 m 33ft 28.435611 -13.86627 - - 3.0°
01R 11175ft / 3406 m 37ft 28.441872 -13.864122 109.5 3.0°
19L 187° 11175ft / 3406 m 83ft 28.45937 -13.863545 111.3 187° 3.5°
19R 187° 7218ft / 2200 m 85ft 28.450492 -13.865778 - - 3.0°